createdAt,value
2022-10-06T00:01:56.028Z,100375.59
2022-10-06T00:06:58.827Z,100376.38
2022-10-06T00:12:01.528Z,100380.34
2022-10-06T00:17:04.818Z,100382.89
2022-10-06T00:22:07.536Z,100388.79
2022-10-06T00:27:10.232Z,100389.47
2022-10-06T00:32:12.911Z,100390.44
2022-10-06T00:37:15.630Z,100386.51
2022-10-06T00:42:31.412Z,100388.42
2022-10-06T00:47:34.174Z,100386.84
2022-10-06T00:52:36.902Z,100385.19
2022-10-06T00:57:41.362Z,100382.89
2022-10-06T01:03:07.910Z,100381.27
2022-10-06T01:08:10.750Z,100378.08
2022-10-06T01:13:14.873Z,100379.30
2022-10-06T01:18:20.385Z,100382.28
2022-10-06T01:23:23.503Z,100379.34
2022-10-06T01:28:26.722Z,100377.58
2022-10-06T01:33:30.375Z,100374.77
2022-10-06T01:38:33.536Z,100373.59
2022-10-06T01:43:36.313Z,100378.02
2022-10-06T01:48:38.983Z,100373.88
2022-10-06T01:53:42.091Z,100373.60
2022-10-06T01:58:44.760Z,100373.43
2022-10-06T02:03:47.439Z,100374.43
2022-10-06T02:08:50.288Z,100376.58
2022-10-06T02:13:53.605Z,100374.16
2022-10-06T02:18:56.299Z,100376.66
2022-10-06T02:23:59.174Z,100374.55
2022-10-06T02:29:01.823Z,100380.72
2022-10-06T02:34:04.948Z,100382.14
2022-10-06T02:39:07.813Z,100384.37
2022-10-06T02:44:10.561Z,100384.89
2022-10-06T02:49:13.733Z,100382.59
2022-10-06T02:54:16.624Z,100382.27
2022-10-06T02:59:19.307Z,100380.86
2022-10-06T03:04:22.027Z,100388.29
2022-10-06T03:09:25.355Z,100393.79
2022-10-06T03:14:28.166Z,100388.99
2022-10-06T03:19:30.835Z,100388.92
2022-10-06T03:24:33.857Z,100389.06
2022-10-06T03:29:36.523Z,100387.54
2022-10-06T03:34:39.221Z,100401.51
2022-10-06T03:39:42.120Z,100403.27
2022-10-06T03:44:44.875Z,100403.15
2022-10-06T03:49:47.867Z,100403.19
2022-10-06T03:54:50.547Z,100405.66
2022-10-06T03:59:53.282Z,100413.80
2022-10-06T04:04:56.552Z,100416.14
2022-10-06T04:09:59.155Z,100430.70
2022-10-06T04:15:02.486Z,100432.83
2022-10-06T04:20:06.010Z,100430.99
2022-10-06T04:25:08.886Z,100432.19
2022-10-06T04:30:12.751Z,100436.69
2022-10-06T04:35:15.632Z,100439.46
2022-10-06T04:40:18.542Z,100444.75
2022-10-06T04:45:21.237Z,100440.33
2022-10-06T04:50:24.147Z,100443.34
2022-10-06T04:55:26.786Z,100449.12
2022-10-06T05:00:29.531Z,100450.94
2022-10-06T05:05:32.196Z,100453.81
2022-10-06T05:10:34.864Z,100458.45
2022-10-06T05:15:37.877Z,100477.27
2022-10-06T05:20:40.571Z,100483.27
2022-10-06T05:25:51.741Z,100486.10
2022-10-06T05:30:55.137Z,100493.35
2022-10-06T05:36:00.750Z,100492.19
2022-10-06T05:41:03.342Z,100506.02
2022-10-06T05:46:11.057Z,100515.73
2022-10-06T05:51:15.052Z,100523.85
2022-10-06T05:56:20.524Z,100533.55
2022-10-06T06:01:37.051Z,100535.85
2022-10-06T06:06:46.255Z,100541.91
2022-10-06T06:11:51.036Z,100542.01
2022-10-06T06:16:54.356Z,100561.20
2022-10-06T06:21:57.440Z,100567.23
2022-10-06T06:27:00.305Z,100577.13
2022-10-06T06:32:06.005Z,100586.09
2022-10-06T06:37:14.979Z,100587.71
2022-10-06T06:42:19.206Z,100594.96
2022-10-06T06:47:25.976Z,100594.73
2022-10-06T06:52:31.135Z,100593.55
2022-10-06T06:57:34.363Z,100604.44
2022-10-06T07:02:41.867Z,100620.61
2022-10-06T07:07:48.627Z,100633.63
2022-10-06T07:24:20.873Z,100669.49
2022-10-06T07:29:25.258Z,100673.59
2022-10-06T07:40:18.567Z,100693.55
2022-10-06T07:45:39.041Z,100695.90
2022-10-06T07:50:43.816Z,100696.48
2022-10-06T07:55:47.891Z,100717.03
2022-10-06T08:00:52.908Z,100726.03
2022-10-06T08:06:03.392Z,100744.91
2022-10-06T08:11:08.179Z,100744.70
2022-10-06T08:16:22.996Z,100739.47
2022-10-06T08:21:29.090Z,100739.46
2022-10-06T08:26:33.279Z,100757.76
2022-10-06T08:31:36.086Z,100761.84
2022-10-06T08:36:38.973Z,100772.55
2022-10-06T08:41:51.210Z,100780.65
2022-10-06T08:47:02.578Z,100792.48
2022-10-06T08:52:27.990Z,100796.64
2022-10-06T08:58:29.461Z,100793.51
2022-10-06T09:03:45.909Z,100808.91
2022-10-06T09:09:35.694Z,100826.29
2022-10-06T09:15:12.346Z,100826.52
2022-10-06T09:20:38.397Z,100828.49
2022-10-06T09:25:42.026Z,100829.20
2022-10-06T09:30:53.151Z,100834.91
2022-10-06T09:36:08.316Z,100843.08
2022-10-06T09:41:30.077Z,100847.86
2022-10-06T09:46:43.949Z,100856.09
2022-10-06T09:52:07.695Z,100870.98
2022-10-06T09:57:28.929Z,100876.27
2022-10-06T10:02:39.875Z,100898.27
2022-10-06T10:08:07.284Z,100913.30
2022-10-06T10:13:43.915Z,100933.16
2022-10-06T10:25:25.649Z,100952.05
2022-10-06T10:30:39.573Z,100956.08
2022-10-06T10:35:48.582Z,100958.55
2022-10-06T10:41:11.929Z,100962.23
2022-10-06T10:46:34.856Z,100966.27
2022-10-06T10:51:52.967Z,100962.57
2022-10-06T10:56:55.823Z,100972.76
2022-10-06T11:02:14.487Z,100980.99
2022-10-06T11:13:25.218Z,100987.08
2022-10-06T11:18:49.648Z,100999.45
2022-10-06T11:24:21.373Z,100998.88
2022-10-06T11:29:43.199Z,101008.02
2022-10-06T11:34:51.572Z,101005.86
2022-10-06T11:40:17.345Z,101005.23
2022-10-06T11:45:32.265Z,101016.80
2022-10-06T11:50:43.306Z,101024.45
2022-10-06T11:55:46.093Z,101036.48
2022-10-06T12:00:49.769Z,101043.42
2022-10-06T12:05:57.063Z,101052.63
2022-10-06T12:11:02.384Z,101067.35
2022-10-06T12:22:16.982Z,101085.28
2022-10-06T12:27:30.271Z,101093.44
2022-10-06T12:32:53.061Z,101096.97
2022-10-06T12:38:05.096Z,101092.83
2022-10-06T12:43:15.311Z,101089.46
2022-10-06T12:48:26.967Z,101093.02
2022-10-06T12:53:37.005Z,101091.80
2022-10-06T12:58:39.727Z,101102.27
2022-10-06T13:03:47.257Z,101109.31
2022-10-06T13:09:15.049Z,101112.73
2022-10-06T13:14:17.721Z,101119.14
2022-10-06T13:19:25.891Z,101123.08
2022-10-06T13:24:31.064Z,101121.01
2022-10-06T13:29:33.734Z,101130.02
2022-10-06T13:34:43.283Z,101138.90
2022-10-06T13:39:46.725Z,101153.31
2022-10-06T13:44:59.567Z,101159.62
2022-10-06T13:50:08.372Z,101173.10
2022-10-06T13:55:18.666Z,101183.42
2022-10-06T14:00:25.740Z,101188.27
2022-10-06T14:05:40.225Z,101190.70
2022-10-06T14:10:49.750Z,101195.54
2022-10-06T14:16:02.125Z,101200.34
2022-10-06T14:21:36.791Z,101197.92
2022-10-06T14:26:39.932Z,101209.02
2022-10-06T14:31:43.702Z,101217.42
2022-10-06T14:36:55.417Z,101223.55
2022-10-06T14:41:58.865Z,101229.88
2022-10-06T14:47:01.564Z,101237.50
2022-10-06T14:52:05.676Z,101239.05
2022-10-06T14:57:09.807Z,101245.66
2022-10-06T15:02:12.643Z,101248.38
2022-10-06T15:07:34.032Z,101254.20
2022-10-06T15:12:36.932Z,101261.19
2022-10-06T15:17:39.605Z,101268.80
2022-10-06T15:22:42.288Z,101279.56
2022-10-06T15:28:03.521Z,101287.98
2022-10-06T15:33:06.568Z,101302.63
2022-10-06T15:38:09.336Z,101306.19
2022-10-06T15:43:14.202Z,101307.71
2022-10-06T15:48:20.330Z,101311.86
2022-10-06T15:53:23.151Z,101324.05
2022-10-06T15:58:25.769Z,101336.92
2022-10-06T16:03:41.278Z,101346.66
2022-10-06T16:08:44.405Z,101353.05
2022-10-06T16:13:47.099Z,101360.73
2022-10-06T16:18:49.908Z,101372.55
2022-10-06T16:23:53.732Z,101370.73
2022-10-06T16:28:56.559Z,101381.55
2022-10-06T16:33:59.406Z,101390.26
2022-10-06T16:39:03.318Z,101396.66
2022-10-06T16:44:06.041Z,101402.87
2022-10-06T16:49:09.758Z,101414.23
2022-10-06T16:54:14.782Z,101429.99
2022-10-06T16:59:20.366Z,101435.13
2022-10-06T17:04:26.066Z,101444.31
2022-10-06T17:09:29.810Z,101458.55
2022-10-06T17:14:34.591Z,101465.23
2022-10-06T17:19:37.344Z,101472.08
2022-10-06T17:24:40.028Z,101477.00
2022-10-06T17:29:44.788Z,101474.13
2022-10-06T17:34:47.898Z,101480.12
2022-10-06T17:39:50.529Z,101482.27
2022-10-06T17:44:53.869Z,101478.79
2022-10-06T17:49:57.136Z,101482.46
2022-10-06T17:54:59.809Z,101484.25
2022-10-06T18:00:02.622Z,101492.33
2022-10-06T18:05:07.098Z,101498.30
2022-10-06T18:10:28.363Z,101494.20
2022-10-06T18:15:36.342Z,101505.52
2022-10-06T18:20:41.306Z,101508.46
2022-10-06T18:25:44.489Z,101513.12
2022-10-06T18:30:50.610Z,101516.64
2022-10-06T18:36:14.942Z,101521.56
2022-10-06T18:41:19.654Z,101525.42
2022-10-06T18:46:41.904Z,101527.02
2022-10-06T18:51:47.011Z,101528.84
2022-10-06T18:56:53.489Z,101536.83
2022-10-06T19:01:56.800Z,101537.23
2022-10-06T19:06:59.653Z,101542.38
2022-10-06T19:12:02.344Z,101542.13
2022-10-06T19:17:14.975Z,101549.88
2022-10-06T19:22:20.135Z,101553.77
2022-10-06T19:27:25.109Z,101558.16
2022-10-06T19:32:32.352Z,101568.90
2022-10-06T19:37:35.045Z,101572.61
2022-10-06T19:42:51.231Z,101582.67
2022-10-06T19:47:54.822Z,101583.36
2022-10-06T19:52:57.553Z,101586.94
2022-10-06T19:58:00.538Z,101589.95
2022-10-06T20:03:07.532Z,101596.64
2022-10-06T20:08:10.223Z,101602.27
2022-10-06T20:13:12.897Z,101603.18
2022-10-06T20:18:15.926Z,101609.66
2022-10-06T20:23:18.659Z,101611.77
2022-10-06T20:28:21.620Z,101612.52
2022-10-06T20:33:24.410Z,101616.57
2022-10-06T20:38:47.056Z,101612.38
2022-10-06T20:43:50.832Z,101610.47
2022-10-06T20:48:53.665Z,101611.93
2022-10-06T20:53:56.357Z,101611.27
2022-10-06T20:59:08.816Z,101612.69
2022-10-06T21:04:12.150Z,101618.81
2022-10-06T21:09:16.784Z,101624.38
2022-10-06T21:14:20.107Z,101621.42
2022-10-06T21:19:22.916Z,101622.68
2022-10-06T21:24:25.711Z,101628.28
2022-10-06T21:29:28.483Z,101629.48
2022-10-06T21:34:31.881Z,101632.48
2022-10-06T21:39:35.038Z,101636.16
2022-10-06T21:44:37.748Z,101626.89
2022-10-06T21:49:40.499Z,101628.83
2022-10-06T21:54:43.256Z,101631.98
2022-10-06T21:59:47.062Z,101634.44
2022-10-06T22:04:49.833Z,101632.16
2022-10-06T22:09:52.584Z,101628.67
2022-10-06T22:14:58.849Z,101633.76
2022-10-06T22:20:01.616Z,101627.65
2022-10-06T22:25:05.282Z,101622.45
2022-10-06T22:30:09.096Z,101617.40
2022-10-06T22:35:11.985Z,101613.73
2022-10-06T22:40:14.813Z,101617.56
2022-10-06T22:45:17.693Z,101618.11
2022-10-06T22:50:20.441Z,101621.45
2022-10-06T22:55:23.823Z,101621.83
2022-10-06T23:00:27.863Z,101623.23
2022-10-06T23:05:30.949Z,101625.52
2022-10-06T23:10:37.127Z,101624.99
2022-10-06T23:15:40.032Z,101626.94
2022-10-06T23:20:42.839Z,101628.55
2022-10-06T23:25:45.739Z,101635.19
2022-10-06T23:30:48.537Z,101639.55
2022-10-06T23:35:58.485Z,101641.65
2022-10-06T23:41:01.304Z,101640.79
2022-10-06T23:46:04.244Z,101641.84
2022-10-06T23:51:13.040Z,101638.19
2022-10-06T23:56:16.264Z,101635.22
